createdAt,value
2022-09-02T00:04:14.495Z,1.87
2022-09-02T00:09:25.409Z,1.50
2022-09-02T00:14:36.170Z,1.40
2022-09-02T00:19:42.930Z,1.50
2022-09-02T00:24:49.880Z,1.37
2022-09-02T00:29:56.966Z,1.50
2022-09-02T00:35:04.050Z,1.63
2022-09-02T00:40:12.502Z,1.67
2022-09-02T00:45:21.301Z,1.43
2022-09-02T00:50:32.583Z,1.60
2022-09-02T00:55:46.679Z,1.57
2022-09-02T01:00:58.196Z,1.70
2022-09-02T01:06:06.584Z,1.40
2022-09-02T01:11:13.924Z,1.70
2022-09-02T01:16:34.054Z,1.50
2022-09-02T01:21:42.705Z,1.80
2022-09-02T01:26:50.830Z,1.57
2022-09-02T01:31:57.968Z,1.70
2022-09-02T01:37:04.956Z,1.50
2022-09-02T01:42:11.719Z,1.73
2022-09-02T01:47:24.957Z,1.70
2022-09-02T01:52:31.776Z,1.30
2022-09-02T01:57:38.701Z,1.23
2022-09-02T02:02:45.629Z,1.80
2022-09-02T02:07:52.996Z,1.60
2022-09-02T02:13:00.682Z,1.60
2022-09-02T02:18:07.520Z,1.63
2022-09-02T02:23:14.442Z,1.50
2022-09-02T02:28:21.241Z,1.60
2022-09-02T02:33:33.349Z,1.63
2022-09-02T02:38:40.253Z,1.60
2022-09-02T02:43:48.076Z,1.67
2022-09-02T02:48:54.736Z,1.57
2022-09-02T02:54:02.757Z,1.80
2022-09-02T02:59:09.620Z,1.57
2022-09-02T03:04:16.313Z,1.67
2022-09-02T03:09:23.296Z,1.40
2022-09-02T03:14:30.542Z,1.37
2022-09-02T03:19:37.318Z,1.50
2022-09-02T03:24:43.968Z,1.50
2022-09-02T03:29:50.729Z,1.60
2022-09-02T03:34:57.448Z,1.57
2022-09-02T03:40:14.427Z,1.57
2022-09-02T03:45:21.885Z,1.70
2022-09-02T03:50:39.736Z,1.70
2022-09-02T03:55:46.554Z,1.53
2022-09-02T04:00:56.394Z,1.70
2022-09-02T04:06:03.728Z,1.60
2022-09-02T04:11:18.564Z,1.57
2022-09-02T04:16:29.248Z,1.77
2022-09-02T04:21:39.687Z,2.00
2022-09-02T04:26:46.422Z,2.10
2022-09-02T04:31:53.506Z,1.80
2022-09-02T04:37:00.410Z,2.07
2022-09-02T04:42:07.724Z,1.60
2022-09-02T04:47:14.736Z,1.50
2022-09-02T04:52:21.567Z,1.63
2022-09-02T04:57:28.326Z,2.40
2022-09-02T05:02:35.311Z,1.70
2022-09-02T05:07:42.587Z,1.60
2022-09-02T05:12:49.312Z,1.60
2022-09-02T05:17:56.013Z,1.60
2022-09-02T05:23:02.767Z,1.63
2022-09-02T05:28:10.467Z,1.60
2022-09-02T05:33:18.078Z,1.50
2022-09-02T05:38:25.494Z,1.63
2022-09-02T05:43:32.279Z,2.30
2022-09-02T05:48:57.571Z,1.50
2022-09-02T05:54:04.333Z,1.53
2022-09-02T05:59:11.047Z,1.60
2022-09-02T06:04:18.597Z,1.70
2022-09-02T06:09:27.423Z,1.50
2022-09-02T06:14:34.126Z,1.60
2022-09-02T06:19:40.947Z,1.70
2022-09-02T06:24:49.212Z,1.43
2022-09-02T06:29:55.971Z,1.40
2022-09-02T06:35:02.938Z,1.53
2022-09-02T06:40:10.462Z,1.50
2022-09-02T06:45:17.376Z,1.43
2022-09-02T06:50:24.535Z,1.60
2022-09-02T06:55:32.869Z,1.40
2022-09-02T07:00:41.802Z,1.50
2022-09-02T07:05:48.642Z,1.50
2022-09-02T07:10:55.382Z,1.60
2022-09-02T07:16:02.536Z,1.87
2022-09-02T07:21:12.047Z,1.47
2022-09-02T07:26:20.200Z,1.47
2022-09-02T07:31:28.841Z,1.70
2022-09-02T07:36:36.902Z,1.70
2022-09-02T07:41:47.392Z,1.40
2022-09-02T07:46:54.782Z,1.40
2022-09-02T07:52:01.540Z,1.97
2022-09-02T07:57:08.862Z,1.80
2022-09-02T08:02:17.715Z,1.50
2022-09-02T08:07:24.666Z,1.40
2022-09-02T08:12:31.839Z,1.60
2022-09-02T08:17:40.826Z,1.60
2022-09-02T08:22:52.045Z,1.50
2022-09-02T08:27:58.751Z,1.50
2022-09-02T08:33:05.650Z,1.50
2022-09-02T08:38:12.405Z,1.50
2022-09-02T08:43:32.531Z,1.30
2022-09-02T08:48:59.665Z,1.10
2022-09-02T08:54:38.932Z,1.30
2022-09-02T08:59:46.754Z,1.33
2022-09-02T09:05:19.703Z,1.30
2022-09-02T09:10:53.011Z,1.20
2022-09-02T09:16:08.329Z,1.10
2022-09-02T09:21:15.437Z,1.10
2022-09-02T09:26:29.172Z,1.10
2022-09-02T09:31:38.934Z,1.30
2022-09-02T09:36:56.146Z,1.10
2022-09-02T09:42:13.210Z,1.00
2022-09-02T09:47:26.272Z,1.20
2022-09-02T09:52:33.247Z,1.00
2022-09-02T09:57:44.829Z,1.20
2022-09-02T10:02:56.276Z,1.27
2022-09-02T10:08:10.146Z,1.10
2022-09-02T10:13:28.849Z,1.00
2022-09-02T10:19:07.011Z,1.20
2022-09-02T10:24:33.131Z,1.40
2022-09-02T10:30:02.812Z,1.50
2022-09-02T10:35:43.852Z,1.40
2022-09-02T10:41:00.871Z,1.20
2022-09-02T10:46:13.731Z,1.30
2022-09-02T10:51:48.731Z,1.30
2022-09-02T10:56:59.957Z,1.40
2022-09-02T11:02:44.287Z,1.40
2022-09-02T11:07:57.993Z,1.20
2022-09-02T11:13:19.231Z,1.10
2022-09-02T11:18:41.346Z,1.50
2022-09-02T11:23:56.977Z,1.20
2022-09-02T11:29:22.829Z,1.30
2022-09-02T11:34:36.669Z,1.17
2022-09-02T11:40:02.586Z,1.30
2022-09-02T11:45:23.112Z,1.17
2022-09-02T11:51:02.925Z,1.30
2022-09-02T11:56:29.282Z,1.40
2022-09-02T12:01:43.884Z,1.50
2022-09-02T12:07:10.590Z,1.70
2022-09-02T12:12:41.572Z,1.30
2022-09-02T12:17:52.832Z,1.30
2022-09-02T12:23:00.347Z,1.30
2022-09-02T12:28:28.467Z,1.47
2022-09-02T12:33:44.966Z,1.40
2022-09-02T12:38:51.826Z,1.27
2022-09-02T12:44:24.711Z,1.20
2022-09-02T12:49:41.651Z,1.33
2022-09-02T12:54:50.747Z,1.20
2022-09-02T13:00:00.438Z,1.30
2022-09-02T13:05:29.552Z,1.20
2022-09-02T13:10:55.136Z,1.20
2022-09-02T13:16:39.742Z,1.37
2022-09-02T13:22:02.904Z,1.20
2022-09-02T13:27:25.551Z,1.10
2022-09-02T13:32:34.431Z,1.30
2022-09-02T13:37:46.560Z,1.30
2022-09-02T13:42:57.384Z,1.20
2022-09-02T13:48:10.251Z,1.20
2022-09-02T13:53:53.951Z,1.50
2022-09-02T13:58:51.311Z,1.30
2022-09-02T14:04:01.328Z,1.30
2022-09-02T14:09:15.340Z,1.20
2022-09-02T14:14:24.838Z,1.50
2022-09-02T14:19:31.546Z,1.37
2022-09-02T14:24:42.905Z,1.20
2022-09-02T14:29:54.013Z,1.30
2022-09-02T14:35:21.980Z,1.50
2022-09-02T14:40:38.217Z,1.50
2022-09-02T14:45:58.089Z,1.33
2022-09-02T14:51:07.744Z,1.20
2022-09-02T14:56:14.561Z,1.43
2022-09-02T15:01:21.431Z,1.20
2022-09-02T15:06:28.268Z,1.50
2022-09-02T15:11:35.022Z,1.33
2022-09-02T15:16:47.648Z,1.40
2022-09-02T15:22:08.363Z,1.20
2022-09-02T15:27:17.274Z,1.30
2022-09-02T15:32:24.371Z,1.13
2022-09-02T15:37:31.101Z,1.27
2022-09-02T15:42:39.346Z,1.43
2022-09-02T15:47:46.062Z,1.37
2022-09-02T15:52:52.796Z,1.50
2022-09-02T15:57:59.831Z,1.33
2022-09-02T16:03:06.809Z,1.40
2022-09-02T16:08:14.414Z,1.60
2022-09-02T16:13:22.239Z,1.50
2022-09-02T16:18:29.006Z,1.37
2022-09-02T16:23:36.278Z,1.30
2022-09-02T16:28:46.013Z,1.23
2022-09-02T16:34:08.092Z,1.40
2022-09-02T16:39:16.045Z,1.40
2022-09-02T16:44:25.620Z,1.40
2022-09-02T16:49:32.279Z,1.40
2022-09-02T16:54:41.085Z,1.53
2022-09-02T16:59:47.397Z,1.50
2022-09-02T17:04:54.251Z,1.50
2022-09-02T17:10:00.942Z,1.10
2022-09-02T17:15:08.472Z,1.30
2022-09-02T17:20:15.671Z,1.37
2022-09-02T17:25:22.326Z,1.30
2022-09-02T17:30:29.148Z,1.27
2022-09-02T17:35:35.844Z,1.67
2022-09-02T17:41:00.192Z,1.20
2022-09-02T17:46:09.641Z,1.27
2022-09-02T17:51:19.831Z,1.43
2022-09-02T17:57:02.280Z,1.40
2022-09-02T18:02:25.810Z,1.40
2022-09-02T18:08:02.116Z,1.47
2022-09-02T18:13:14.739Z,1.40
2022-09-02T18:18:22.574Z,1.47
2022-09-02T18:24:05.598Z,1.80
2022-09-02T18:29:31.889Z,1.80
2022-09-02T18:34:49.142Z,1.70
2022-09-02T18:40:09.899Z,1.70
2022-09-02T18:45:51.898Z,1.70
2022-09-02T18:51:17.883Z,1.70
2022-09-02T18:56:31.043Z,1.60
2022-09-02T19:01:47.764Z,1.23
2022-09-02T19:06:57.186Z,1.70
2022-09-02T19:12:04.842Z,4.50
2022-09-02T19:17:12.913Z,2.53
2022-09-02T19:22:23.474Z,2.00
2022-09-02T19:27:36.877Z,1.80
2022-09-02T19:32:48.062Z,2.20
2022-09-02T19:37:56.511Z,2.20
2022-09-02T19:43:03.927Z,1.93
2022-09-02T19:48:11.994Z,2.03
2022-09-02T19:53:28.878Z,1.80
2022-09-02T19:58:36.383Z,2.10
2022-09-02T20:03:45.874Z,2.10
2022-09-02T20:08:53.114Z,2.10
2022-09-02T20:14:00.183Z,2.10
2022-09-02T20:19:07.022Z,2.30
2022-09-02T20:24:18.672Z,2.20
2022-09-02T20:29:55.482Z,1.90
2022-09-02T20:35:15.042Z,2.10
2022-09-02T20:40:27.366Z,2.00
2022-09-02T20:45:44.237Z,1.77
2022-09-02T20:51:13.120Z,2.00
2022-09-02T20:56:55.322Z,2.40
2022-09-02T21:02:03.915Z,2.30
2022-09-02T21:07:31.899Z,2.47
2022-09-02T21:12:57.925Z,2.20
2022-09-02T21:18:49.472Z,2.33
2022-09-02T21:24:00.694Z,2.07
2022-09-02T21:29:26.676Z,2.27
2022-09-02T21:34:43.826Z,2.50
2022-09-02T21:40:02.597Z,2.33
2022-09-02T21:45:22.511Z,2.23
2022-09-02T21:50:39.466Z,2.57
2022-09-02T21:56:02.764Z,2.60
2022-09-02T22:01:14.097Z,1.70
2022-09-02T22:06:34.502Z,2.77
2022-09-02T22:11:45.322Z,2.63
2022-09-02T22:17:04.106Z,2.30
2022-09-02T22:22:17.883Z,2.60
2022-09-02T22:27:36.866Z,2.50
2022-09-02T22:32:52.200Z,2.50
2022-09-02T22:38:28.359Z,2.90
2022-09-02T22:43:51.106Z,2.70
2022-09-02T22:49:22.669Z,2.70
2022-09-02T22:54:31.938Z,2.67
2022-09-02T23:00:02.550Z,2.70
2022-09-02T23:05:39.676Z,2.70
2022-09-02T23:11:13.026Z,2.47
2022-09-02T23:16:35.920Z,2.43
2022-09-02T23:22:04.664Z,2.60
2022-09-02T23:27:20.197Z,2.50
2022-09-02T23:32:38.453Z,2.80
2022-09-02T23:38:06.022Z,3.13
2022-09-02T23:43:18.231Z,3.00
2022-09-02T23:48:54.772Z,3.00
2022-09-02T23:54:29.839Z,2.93
